Time;durP1;ratioP1;P1;durP2;ratioP2;P2;SDS_P1;SDS_P2;PMS_P1;PMS_P2;Temp;Humidity;BMP_temperature;BMP_pressure;BME280_temperature;BME280_humidity;BME280_pressure;Samples;Min_cycle;Max_cycle;Signal;HPM_P1;HPM_P2
2022/06/13 00:03:47;;;;;;;7.47;6.20;;;14.30;21.70;;;;;;8370263;28;20197;-65
2022/06/13 00:07:48;;;;;;;6.63;5.83;;;14.20;99.90;;;;;;8365832;28;20186;-65
2022/06/13 00:11:49;;;;;;;6.70;5.80;;;14.20;99.90;;;;;;8368220;28;20181;-65
2022/06/13 00:15:50;;;;;;;6.63;5.93;;;14.10;99.90;;;;;;8368304;28;20185;-65
2022/06/13 00:19:51;;;;;;;6.23;5.63;;;14.00;99.90;;;;;;8366373;28;20205;-65
2022/06/13 00:23:52;;;;;;;8.97;7.60;;;13.80;1.00;;;;;;8362277;28;20182;-65
2022/06/13 00:27:53;;;;;;;8.87;7.30;;;13.80;99.90;;;;;;8371359;28;20212;-65
2022/06/13 00:31:54;;;;;;;5.97;5.47;;;13.60;99.90;;;;;;8369235;28;20188;-71
2022/06/13 00:35:55;;;;;;;5.97;5.40;;;13.50;99.90;;;;;;8362747;28;20275;-65
2022/06/13 00:39:56;;;;;;;5.90;5.40;;;13.40;1.00;;;;;;8364914;28;20254;-65
2022/06/13 00:43:58;;;;;;;6.13;5.63;;;13.30;1.00;;;;;;8369832;28;20180;-64
2022/06/13 00:48:00;;;;;;;5.80;5.30;;;13.20;1.00;;;;;;8363967;28;20578;-64
2022/06/13 00:52:18;;;;;;;6.10;5.60;;;13.20;1.00;;;;;;8365307;28;20243;-65
2022/06/13 00:56:24;;;;;;;7.03;6.30;;;13.10;1.00;;;;;;8362414;28;20202;-65
2022/06/13 01:00:25;;;;;;;6.60;6.00;;;13.00;27.10;;;;;;8370506;28;20202;-65
2022/06/13 01:04:26;;;;;;;6.37;5.77;;;13.00;82.80;;;;;;8364203;28;20204;-65
2022/06/13 01:08:30;;;;;;;6.20;5.60;;;12.90;47.10;;;;;;8367655;28;20181;-65
2022/06/13 01:12:32;;;;;;;6.70;6.00;;;12.80;57.20;;;;;;8374742;28;20276;-65
2022/06/13 01:17:06;;;;;;;6.03;5.43;;;12.80;99.90;;;;;;8373588;28;20165;-67
2022/06/13 01:21:42;;;;;;;5.97;5.30;;;12.70;99.90;;;;;;8386326;28;20240;-66
2022/06/13 01:26:01;;;;;;;6.63;6.03;;;12.70;99.90;;;;;;8372657;28;20185;-67
2022/06/13 01:30:13;;;;;;;8.20;7.40;;;12.60;99.90;;;;;;8377721;28;20261;-65
2022/06/13 01:34:43;;;;;;;7.53;6.80;;;12.60;99.90;;;;;;8374528;28;20514;-65
2022/06/13 01:39:27;;;;;;;6.77;6.13;;;12.60;99.90;;;;;;8377489;28;20436;-65
2022/06/13 01:43:45;;;;;;;7.80;7.10;;;12.50;99.90;;;;;;8348282;28;20193;-65
2022/06/13 01:48:06;;;;;;;7.43;6.60;;;12.60;99.90;;;;;;8373878;28;20178;-64
2022/06/13 01:52:17;;;;;;;6.80;6.20;;;12.50;99.90;;;;;;8376527;28;20186;-65
2022/06/13 01:56:25;;;;;;;7.80;7.10;;;12.60;99.90;;;;;;8374265;28;20224;-66
2022/06/13 02:00:31;;;;;;;8.20;7.40;;;12.60;99.90;;;;;;8376948;28;20207;-66
2022/06/13 02:04:37;;;;;;;8.20;7.50;;;12.70;99.90;;;;;;8377640;28;20203;-66
2022/06/13 02:08:49;;;;;;;7.80;7.10;;;12.70;99.90;;;;;;8378215;28;20183;-65
2022/06/13 02:12:54;;;;;;;7.37;6.73;;;12.70;99.90;;;;;;8374980;28;20188;-65
2022/06/13 02:16:58;;;;;;;10.20;9.10;;;12.70;99.90;;;;;;8372665;28;20225;-66
2022/06/13 02:21:06;;;;;;;9.23;8.37;;;12.80;99.90;;;;;;8372494;28;20196;-66
2022/06/13 02:25:30;;;;;;;8.67;7.83;;;12.70;99.90;;;;;;8372981;28;20269;-68
2022/06/13 02:29:41;;;;;;;15.30;11.37;;;12.70;99.90;;;;;;8374491;28;20219;-66
2022/06/13 02:34:01;;;;;;;12.60;10.30;;;12.90;99.90;;;;;;8373643;28;20274;-66
2022/06/13 02:38:10;;;;;;;10.00;9.10;;;13.00;99.90;;;;;;8371045;28;20205;-66
2022/06/13 02:42:23;;;;;;;8.80;8.10;;;13.10;99.90;;;;;;8371696;28;20195;-67
2022/06/13 02:46:36;;;;;;;8.50;7.77;;;13.10;99.90;;;;;;8366429;28;20181;-67
2022/06/13 02:50:48;;;;;;;9.73;8.77;;;13.20;99.90;;;;;;8369964;28;20213;-66
2022/06/13 02:54:56;;;;;;;8.90;7.70;;;13.20;99.90;;;;;;8374399;28;20676;-66
2022/06/13 02:59:11;;;;;;;10.60;9.50;;;13.30;99.90;;;;;;8370905;28;20220;-69
2022/06/13 03:03:24;;;;;;;9.80;8.80;;;13.50;99.90;;;;;;8379575;28;20200;-67
2022/06/13 03:07:38;;;;;;;9.03;8.23;;;13.50;99.90;;;;;;8376596;28;20217;-68
2022/06/13 03:11:42;;;;;;;8.77;7.97;;;13.30;99.90;;;;;;8365244;28;20189;-68
2022/06/13 03:16:03;;;;;;;7.70;6.83;;;13.30;99.90;;;;;;8378065;28;20184;-67
2022/06/13 03:20:25;;;;;;;8.33;7.53;;;13.30;99.90;;;;;;8373098;28;20204;-68
2022/06/13 03:24:59;;;;;;;8.53;7.73;;;13.40;99.90;;;;;;8366714;28;20182;-68
2022/06/13 03:29:16;;;;;;;9.17;8.37;;;13.50;99.90;;;;;;8373319;28;20203;-68
2022/06/13 03:33:41;;;;;;;8.97;8.17;;;13.60;99.90;;;;;;8366684;28;20211;-68
2022/06/13 03:37:47;;;;;;;8.57;7.67;;;13.70;99.90;;;;;;8372628;28;20216;-67
2022/06/13 03:42:02;;;;;;;8.27;7.47;;;13.70;99.90;;;;;;8373521;28;20184;-67
2022/06/13 03:46:22;;;;;;;7.50;6.80;;;13.80;99.90;;;;;;8372017;28;20187;-68
2022/06/13 03:50:35;;;;;;;7.37;6.60;;;13.90;99.90;;;;;;8374255;28;20234;-69
2022/06/13 03:54:42;;;;;;;6.23;5.67;;;13.90;99.90;;;;;;8366587;28;20186;-68
2022/06/13 03:59:07;;;;;;;8.50;7.67;;;14.00;99.90;;;;;;8368663;28;20201;-72
2022/06/13 04:03:09;;;;;;;8.97;8.20;;;14.00;99.90;;;;;;8357470;28;20304;-68
2022/06/13 04:07:10;;;;;;;7.87;7.07;;;14.10;99.90;;;;;;8383181;28;20249;-68
2022/06/13 04:11:37;;;;;;;8.07;7.33;;;14.00;99.90;;;;;;8365534;28;20274;-68
2022/06/13 04:16:00;;;;;;;6.90;6.30;;;14.00;99.90;;;;;;8375289;28;20189;-68
2022/06/13 04:20:30;;;;;;;7.60;6.80;;;14.10;99.90;;;;;;8368116;28;20233;-68
2022/06/13 04:25:04;;;;;;;7.83;7.13;;;14.30;99.90;;;;;;8368097;28;20174;-68
2022/06/13 04:29:23;;;;;;;8.87;7.90;;;14.40;99.90;;;;;;8365083;28;20289;-69
2022/06/13 04:33:34;;;;;;;7.50;6.73;;;14.50;99.90;;;;;;8361856;28;20182;-68
2022/06/13 04:37:38;;;;;;;7.53;6.83;;;14.60;99.90;;;;;;8374172;28;20295;-68
2022/06/13 04:41:42;;;;;;;7.40;6.80;;;14.70;99.90;;;;;;8369692;28;20182;-67
2022/06/13 04:45:51;;;;;;;7.27;6.67;;;14.80;99.90;;;;;;8370254;28;20178;-68
2022/06/13 04:49:58;;;;;;;8.97;8.17;;;14.70;99.90;;;;;;8373446;28;20465;-66
2022/06/13 04:54:26;;;;;;;11.43;10.33;;;14.70;99.90;;;;;;8366435;28;20185;-68
2022/06/13 04:58:33;;;;;;;10.87;9.77;;;14.80;99.90;;;;;;8377813;28;20714;-65
2022/06/13 05:02:40;;;;;;;11.30;10.20;;;14.90;99.90;;;;;;8370405;28;20288;-65
2022/06/13 05:06:47;;;;;;;11.40;10.10;;;15.10;99.90;;;;;;8367171;28;20182;-67
2022/06/13 05:10:51;;;;;;;10.60;9.50;;;15.20;99.90;;;;;;8369469;28;20181;-68
2022/06/13 05:15:10;;;;;;;11.73;9.17;;;15.30;99.90;;;;;;8369411;28;20225;-66
2022/06/13 05:19:41;;;;;;;11.40;9.20;;;15.50;99.90;;;;;;8372322;28;20216;-66
2022/06/13 05:23:42;;;;;;;10.37;9.27;;;15.50;99.90;;;;;;8371145;28;20667;-66
2022/06/13 05:27:42;;;;;;;9.13;8.23;;;15.50;99.90;;;;;;8371654;28;20209;-66
2022/06/13 05:31:43;;;;;;;8.07;7.23;;;15.60;36.30;;;;;;8380223;28;20189;-66
2022/06/13 05:35:45;;;;;;;9.53;8.53;;;15.80;1.00;;;;;;8367761;28;20185;-66
2022/06/13 05:39:46;;;;;;;9.50;8.50;;;16.10;1.00;;;;;;8367857;28;20205;-66
2022/06/13 05:43:47;;;;;;;8.60;7.70;;;16.40;1.00;;;;;;8364716;28;20186;-66
2022/06/13 05:47:50;;;;;;;10.43;7.20;;;16.60;99.90;;;;;;8371214;28;20185;-67
2022/06/13 05:51:51;;;;;;;8.20;7.30;;;16.80;99.90;;;;;;8373510;28;20280;-68
2022/06/13 05:55:55;;;;;;;10.07;6.80;;;16.70;1.00;;;;;;8363546;28;20196;-68
2022/06/13 05:59:55;;;;;;;7.50;6.37;;;16.50;1.00;;;;;;8379383;28;20230;-67
2022/06/13 06:03:56;;;;;;;10.30;6.93;;;16.30;1.00;;;;;;8385200;28;20204;-70
2022/06/13 06:07:57;;;;;;;7.83;6.50;;;16.30;1.00;;;;;;8380059;28;21066;-65
2022/06/13 06:11:58;;;;;;;7.80;6.33;;;16.50;1.00;;;;;;8380151;28;20184;-68
2022/06/13 06:16:00;;;;;;;8.43;5.80;;;16.70;1.00;;;;;;8373130;28;20181;-69
2022/06/13 06:20:01;;;;;;;7.00;5.63;;;16.90;99.90;;;;;;8381633;28;20240;-69
2022/06/13 06:24:03;;;;;;;8.83;5.17;;;17.00;99.90;;;;;;8369039;28;20239;-68
2022/06/13 06:28:04;;;;;;;7.67;4.60;;;17.00;1.00;;;;;;8373813;28;20201;-67
2022/06/13 06:32:05;;;;;;;8.33;4.60;;;16.70;1.00;;;;;;8369801;28;20457;-69
2022/06/13 06:36:07;;;;;;;8.60;4.77;;;16.50;32.10;;;;;;8375096;28;20192;-71
2022/06/13 06:40:12;;;;;;;6.90;4.20;;;16.50;23.90;;;;;;8375728;28;20268;-71
2022/06/13 06:44:13;;;;;;;7.10;4.47;;;16.50;1.00;;;;;;8369682;28;20178;-68
2022/06/13 06:48:19;;;;;;;9.47;4.20;;;16.60;99.90;;;;;;8372160;28;20213;-68
2022/06/13 06:52:20;;;;;;;7.53;3.90;;;16.60;1.00;;;;;;8373821;28;20221;-69
2022/06/13 07:00:40;;;;;;;5.77;3.97;;;16.30;99.90;;;;;;8369923;28;20266;-68
2022/06/13 07:04:41;;;;;;;5.07;4.27;;;16.50;99.90;;;;;;8375671;28;20186;-67
2022/06/13 07:08:43;;;;;;;9.30;4.80;;;16.90;99.90;;;;;;8369139;28;20185;-66
2022/06/13 07:12:45;;;;;;;7.70;4.90;;;16.90;99.90;;;;;;8373859;28;20270;-69
2022/06/13 07:16:46;;;;;;;11.17;5.30;;;16.80;1.00;;;;;;8370305;28;20231;-65
2022/06/13 07:20:47;;;;;;;8.30;5.63;;;16.60;1.00;;;;;;8372612;28;20214;-67
2022/06/13 07:24:47;;;;;;;10.20;6.33;;;16.50;99.90;;;;;;8376712;28;20377;-67
2022/06/13 07:28:48;;;;;;;7.40;5.37;;;16.70;1.00;;;;;;8378122;28;20236;-67
2022/06/13 07:32:50;;;;;;;7.00;5.17;;;17.20;99.90;;;;;;8367833;28;20287;-67
2022/06/13 07:36:53;;;;;;;6.60;4.70;;;17.90;99.90;;;;;;8367540;28;20440;-67
2022/06/13 07:40:59;;;;;;;5.97;5.23;;;18.10;1.00;;;;;;8368375;28;20464;-68
2022/06/13 07:45:00;;;;;;;7.90;5.40;;;18.10;1.00;;;;;;8368097;28;20188;-68
2022/06/13 07:49:01;;;;;;;11.80;5.57;;;18.00;1.00;;;;;;8370763;28;20188;-67
2022/06/13 07:53:02;;;;;;;10.53;4.80;;;17.80;99.90;;;;;;8371108;28;20243;-67
2022/06/13 07:57:03;;;;;;;6.20;4.53;;;17.80;1.00;;;;;;8367616;28;20189;-67
2022/06/13 08:01:05;;;;;;;6.93;4.77;;;18.40;1.00;;;;;;8367106;28;20217;-69
2022/06/13 08:05:07;;;;;;;6.47;3.90;;;18.90;1.00;;;;;;8375624;28;20265;-67
2022/06/13 08:09:08;;;;;;;8.53;3.87;;;19.00;1.00;;;;;;8369760;28;20181;-69
2022/06/13 08:13:14;;;;;;;5.27;3.13;;;18.60;1.00;;;;;;8371390;28;20184;-70
2022/06/13 08:17:16;;;;;;;6.37;2.87;;;18.50;25.70;;;;;;8368786;28;20189;-68
2022/06/13 08:21:17;;;;;;;6.70;2.80;;;18.60;15.90;;;;;;8369861;28;20181;-68
2022/06/13 08:25:31;;;;;;;9.13;2.70;;;18.60;1.00;;;;;;8366708;28;20265;-68
2022/06/13 08:29:31;;;;;;;6.77;2.87;;;18.70;99.90;;;;;;8368281;28;20205;-66
2022/06/13 08:33:33;;;;;;;5.23;2.50;;;19.00;99.90;;;;;;8370297;28;20196;-68
2022/06/13 08:37:33;;;;;;;3.40;2.10;;;19.50;99.90;;;;;;8369226;28;20205;-67
2022/06/13 08:41:50;;;;;;;6.77;2.37;;;19.90;92.30;;;;;;8375992;28;20188;-66
2022/06/13 08:46:16;;;;;;;4.03;2.20;;;20.00;1.00;;;;;;8367906;28;20181;-68
2022/06/13 08:50:37;;;;;;;4.27;2.50;;;19.80;36.70;;;;;;8363910;28;20289;-70
2022/06/13 08:54:41;;;;;;;5.63;2.17;;;19.80;1.00;;;;;;8359458;28;20209;-67
2022/06/13 08:58:51;;;;;;;4.00;2.00;;;19.80;1.00;;;;;;8373138;28;20202;-67
2022/06/13 09:03:13;;;;;;;6.40;1.97;;;19.70;10.40;;;;;;8368251;28;20355;-68
2022/06/13 09:07:44;;;;;;;4.67;1.60;;;19.50;99.90;;;;;;8370639;28;20181;-72
2022/06/13 09:11:59;;;;;;;4.33;2.13;;;19.40;99.90;;;;;;8365856;28;21072;-68
2022/06/13 09:16:15;;;;;;;3.83;1.43;;;19.40;99.90;;;;;;8366026;28;20532;-66
2022/06/13 09:20:31;;;;;;;4.70;1.80;;;19.10;99.90;;;;;;8368704;28;20213;-65
2022/06/13 09:24:44;;;;;;;4.97;1.70;;;19.00;99.90;;;;;;8365948;28;20268;-69
2022/06/13 09:29:17;;;;;;;3.80;1.60;;;18.80;1.00;;;;;;8371376;28;20209;-67
2022/06/13 09:33:29;;;;;;;5.40;1.70;;;18.50;1.00;;;;;;8369249;28;20204;-69
2022/06/13 09:37:48;;;;;;;5.03;2.03;;;18.20;1.00;;;;;;8373705;28;20259;-70
2022/06/13 09:41:55;;;;;;;6.63;1.97;;;18.30;1.00;;;;;;8371390;28;20189;-66
2022/06/13 09:46:30;;;;;;;4.40;1.90;;;18.40;1.00;;;;;;8367977;28;20339;-67
2022/06/13 09:50:54;;;;;;;6.83;1.60;;;18.50;1.00;;;;;;8367853;28;20225;-68
2022/06/13 09:54:57;;;;;;;6.87;1.93;;;18.90;1.00;;;;;;8368592;28;20197;-69
2022/06/13 09:59:20;;;;;;;5.30;1.70;;;19.30;1.00;;;;;;8365768;28;20590;-67
2022/06/13 10:03:50;;;;;;;5.43;1.87;;;19.60;99.90;;;;;;8374922;28;20451;-68
2022/06/13 10:08:01;;;;;;;5.03;1.87;;;19.80;99.90;;;;;;8380415;28;20200;-66
2022/06/13 10:12:11;;;;;;;5.13;2.00;;;19.80;99.90;;;;;;8381245;28;20292;-68
2022/06/13 10:16:20;;;;;;;2.80;1.80;;;19.70;99.90;;;;;;8367392;28;20190;-67
2022/06/13 10:20:37;;;;;;;4.57;1.77;;;19.80;99.90;;;;;;8366531;28;20216;-69
2022/06/13 10:25:07;;;;;;;4.30;1.77;;;20.30;99.90;;;;;;8379822;28;20182;-66
2022/06/13 10:29:54;;;;;;;3.47;1.53;;;20.60;99.90;;;;;;8372836;28;20252;-71
2022/06/13 10:34:08;;;;;;;8.37;2.33;;;21.10;99.90;;;;;;8379397;28;20199;-65
2022/06/13 10:38:38;;;;;;;5.67;2.03;;;21.30;99.90;;;;;;8372210;28;20240;-66
2022/06/13 10:42:39;;;;;;;7.77;2.00;;;21.10;99.90;;;;;;8374048;28;20292;-64
2022/06/13 10:46:57;;;;;;;3.80;1.50;;;21.50;99.90;;;;;;8367012;28;20189;-64
2022/06/13 10:50:59;;;;;;;6.40;1.90;;;21.00;68.20;;;;;;8373791;28;20187;-65
2022/06/13 10:55:08;;;;;;;3.73;1.50;;;20.40;92.40;;;;;;8364417;28;20190;-66
2022/06/13 10:59:27;;;;;;;5.63;1.80;;;20.10;99.90;;;;;;8366903;28;20216;-69
2022/06/13 11:03:28;;;;;;;4.97;1.80;;;19.80;99.90;;;;;;8370712;28;20201;-70
2022/06/13 11:07:29;;;;;;;6.90;1.73;;;19.70;99.90;;;;;;8372004;28;20241;-64
2022/06/13 11:11:36;;;;;;;3.67;1.57;;;19.50;99.90;;;;;;8366205;28;20181;-68
2022/06/13 11:24:29;;;;;;;6.83;2.10;;;19.50;99.90;;;;;;8373803;28;20192;-71
2022/06/13 11:28:39;;;;;;;3.83;2.33;;;19.50;99.90;;;;;;8368296;28;20263;-67
2022/06/13 11:32:40;;;;;;;2.37;1.67;;;19.70;99.90;;;;;;8367486;28;20297;-69
2022/06/13 11:36:55;;;;;;;5.80;2.57;;;20.00;99.90;;;;;;8368087;28;20189;-70
2022/06/13 11:41:03;;;;;;;2.50;1.80;;;20.10;77.60;;;;;;8373107;28;20208;-67
2022/06/13 11:45:16;;;;;;;3.63;1.70;;;20.50;74.20;;;;;;8376629;28;20178;-67
2022/06/13 11:49:16;;;;;;;4.70;1.80;;;20.70;39.20;;;;;;8372007;28;20221;-71
2022/06/13 11:53:38;;;;;;;3.90;1.70;;;20.40;50.60;;;;;;8364817;28;20216;-68
2022/06/13 11:57:42;;;;;;;4.37;1.90;;;20.50;30.50;;;;;;8370137;28;20202;-69
2022/06/13 12:01:45;;;;;;;5.27;1.60;;;20.70;53.60;;;;;;8379159;28;20227;-68
2022/06/13 12:06:07;;;;;;;3.37;1.70;;;20.50;27.50;;;;;;8372201;28;20272;-67
2022/06/13 12:10:20;;;;;;;5.13;1.90;;;20.30;54.60;;;;;;8366071;28;20192;-68
2022/06/13 12:14:21;;;;;;;4.33;1.30;;;20.30;85.40;;;;;;8362590;28;20182;-65
2022/06/13 12:18:46;;;;;;;5.20;1.53;;;20.40;35.70;;;;;;8364859;28;20279;-67
2022/06/13 12:23:11;;;;;;;5.53;1.67;;;20.50;28.90;;;;;;8372087;28;20228;-67
2022/06/13 12:27:27;;;;;;;6.17;2.13;;;21.00;1.00;;;;;;8368006;28;20201;-68
2022/06/13 12:31:42;;;;;;;4.33;1.87;;;21.20;1.00;;;;;;8366128;28;20409;-66
2022/06/13 12:35:58;;;;;;;4.03;1.63;;;21.20;1.00;;;;;;8373909;28;20189;-67
2022/06/13 12:40:22;;;;;;;6.70;1.73;;;21.40;1.00;;;;;;8367002;28;20236;-73
2022/06/13 12:44:48;;;;;;;4.50;1.57;;;21.50;1.00;;;;;;8377485;28;20181;-67
2022/06/13 12:48:58;;;;;;;4.53;1.50;;;21.70;1.00;;;;;;8359205;28;20185;-68
2022/06/13 12:53:11;;;;;;;5.77;1.47;;;22.10;1.00;;;;;;8371875;28;20193;-67
2022/06/13 12:57:27;;;;;;;2.77;1.03;;;21.70;1.00;;;;;;8363617;28;20188;-69
2022/06/13 13:01:38;;;;;;;3.23;1.73;;;21.20;1.00;;;;;;8377436;28;20197;-66
2022/06/13 13:05:56;;;;;;;3.37;1.30;;;21.00;1.00;;;;;;8368034;28;20186;-66
2022/06/13 13:10:11;;;;;;;2.67;1.23;;;21.10;1.00;;;;;;8364614;28;20181;-66
2022/06/13 13:14:39;;;;;;;4.43;1.53;;;21.70;1.00;;;;;;8361053;28;20277;-68
2022/06/13 13:18:43;;;;;;;4.97;0.90;;;22.10;1.00;;;;;;8358555;28;20194;-66
2022/06/13 13:23:03;;;;;;;3.87;1.17;;;22.30;1.00;;;;;;8370815;28;20253;-69
2022/06/13 13:27:13;;;;;;;3.33;0.90;;;22.90;1.00;;;;;;8362014;28;20305;-65
2022/06/13 13:31:41;;;;;;;4.97;1.30;;;22.70;1.00;;;;;;8369949;28;20200;-65
2022/06/13 13:35:55;;;;;;;6.00;1.30;;;22.00;1.00;;;;;;8365227;28;20219;-68
2022/06/13 13:40:14;;;;;;;7.97;1.20;;;21.90;1.00;;;;;;8371494;28;20276;-67
2022/06/13 13:44:25;;;;;;;2.93;1.10;;;21.90;1.00;;;;;;8372250;28;20181;-66
2022/06/13 13:48:36;;;;;;;3.20;0.97;;;22.00;1.00;;;;;;8364607;28;20590;-68
2022/06/13 13:52:40;;;;;;;4.73;1.20;;;21.70;1.00;;;;;;8372035;28;20182;-64
2022/06/13 13:57:00;;;;;;;4.13;1.50;;;21.70;1.00;;;;;;8365067;28;20181;-66
2022/06/13 14:01:05;;;;;;;4.60;1.30;;;21.30;1.00;;;;;;8360373;28;20315;-67
2022/06/13 14:05:15;;;;;;;3.03;1.10;;;21.20;1.00;;;;;;8365838;28;20181;-67
2022/06/13 14:09:20;;;;;;;5.50;1.40;;;21.20;1.00;;;;;;8368244;28;20185;-68
2022/06/13 14:13:21;;;;;;;5.10;1.20;;;21.60;1.00;;;;;;8367087;28;20186;-71
2022/06/13 14:17:25;;;;;;;3.67;1.00;;;21.70;1.00;;;;;;8367265;28;20265;-68
2022/06/13 14:21:31;;;;;;;3.97;1.40;;;21.30;1.00;;;;;;8367336;28;20185;-71
2022/06/13 14:25:43;;;;;;;4.03;1.20;;;20.80;1.00;;;;;;8366224;28;20269;-68
2022/06/13 14:29:45;;;;;;;2.40;1.30;;;20.60;1.00;;;;;;8361417;28;20209;-65
2022/06/13 14:38:23;;;;;;;2.80;1.10;;;20.50;1.00;;;;;;8363805;28;20279;-66
2022/06/13 14:42:47;;;;;;;5.23;1.30;;;20.60;1.00;;;;;;8371113;28;20281;-67
2022/06/13 14:47:40;;;;;;;3.97;1.80;;;20.70;1.00;;;;;;8365670;28;20252;-67
2022/06/13 14:51:57;;;;;;;3.20;1.40;;;20.70;1.00;;;;;;8353013;28;20189;-67
2022/06/13 14:56:07;;;;;;;5.10;1.40;;;21.00;1.00;;;;;;8364798;28;20308;-68
2022/06/13 15:00:17;;;;;;;3.60;1.30;;;21.20;1.00;;;;;;8370274;28;20212;-63
2022/06/13 15:04:21;;;;;;;6.20;1.80;;;21.10;1.00;;;;;;8367871;28;20203;-60
2022/06/13 15:08:49;;;;;;;3.57;1.40;;;20.80;1.00;;;;;;8362777;28;20185;-63
2022/06/13 15:12:50;;;;;;;4.90;1.20;;;20.50;1.00;;;;;;8368794;28;20186;-64
2022/06/13 15:16:53;;;;;;;5.10;1.17;;;20.30;1.00;;;;;;8370779;28;20189;-63
2022/06/13 15:20:55;;;;;;;5.23;1.20;;;20.30;1.00;;;;;;8364115;28;21633;-63
2022/06/13 15:25:03;;;;;;;6.47;1.33;;;20.30;1.00;;;;;;8369660;28;20193;-62
2022/06/13 15:29:04;;;;;;;5.00;1.40;;;20.30;1.00;;;;;;8384905;28;20206;-63
2022/06/13 15:33:21;;;;;;;4.57;1.30;;;20.50;1.00;;;;;;8369094;28;20267;-66
2022/06/13 15:37:22;;;;;;;6.87;1.60;;;20.70;1.00;;;;;;8370918;28;20185;-63
2022/06/13 15:41:39;;;;;;;3.30;1.43;;;20.40;1.00;;;;;;8364473;28;20488;-64
2022/06/13 15:45:40;;;;;;;4.50;1.40;;;20.00;1.00;;;;;;8364142;28;20178;-62
2022/06/13 15:49:44;;;;;;;4.77;1.40;;;19.80;1.00;;;;;;8362355;28;20193;-63
2022/06/13 15:53:46;;;;;;;2.93;1.30;;;19.70;1.00;;;;;;8368165;28;20196;-63
2022/06/13 15:57:51;;;;;;;7.67;1.93;;;19.50;1.00;;;;;;8364743;28;20209;-63
2022/06/13 16:01:56;;;;;;;5.17;1.90;;;19.40;1.00;;;;;;8367862;28;20193;-61
2022/06/13 16:06:04;;;;;;;4.47;1.77;;;19.30;1.00;;;;;;8365616;28;20181;-63
2022/06/13 16:10:06;;;;;;;3.47;1.50;;;19.30;1.00;;;;;;8368179;28;20419;-63
2022/06/13 16:14:07;;;;;;;5.50;1.77;;;19.50;1.00;;;;;;8363509;28;20212;-63
2022/06/13 16:18:29;;;;;;;4.93;2.10;;;19.80;1.00;;;;;;8366023;28;20204;-67
2022/06/13 16:22:30;;;;;;;3.80;1.10;;;20.40;1.00;;;;;;8373211;28;20180;-61
2022/06/13 16:26:37;;;;;;;4.63;1.30;;;20.70;1.00;;;;;;8365630;28;20272;-63
2022/06/13 16:30:43;;;;;;;7.97;1.43;;;20.60;1.00;;;;;;8363125;28;20192;-64
2022/06/13 16:34:52;;;;;;;4.00;1.90;;;20.40;1.00;;;;;;8364068;28;20238;-64
2022/06/13 16:38:54;;;;;;;7.47;1.43;;;20.20;1.00;;;;;;8365793;28;20651;-63
2022/06/13 16:42:55;;;;;;;3.67;1.50;;;20.30;1.00;;;;;;8372922;28;20188;-61
2022/06/13 16:46:59;;;;;;;6.50;1.80;;;20.30;1.00;;;;;;8368820;28;20168;-65
2022/06/13 16:51:07;;;;;;;6.37;1.77;;;20.20;1.00;;;;;;8367323;28;20178;-65
2022/06/13 16:55:17;;;;;;;2.33;1.57;;;20.20;1.00;;;;;;8358734;28;20217;-62
2022/06/13 16:59:29;;;;;;;3.50;1.40;;;20.00;1.00;;;;;;8361561;28;20213;-63
2022/06/13 17:04:00;;;;;;;4.23;1.67;;;19.90;1.00;;;;;;8366754;28;20455;-64
2022/06/13 17:08:08;;;;;;;5.40;1.50;;;19.90;1.00;;;;;;8369450;28;20182;-67
2022/06/13 17:12:09;;;;;;;4.27;1.40;;;20.00;1.00;;;;;;8366883;28;20217;-62
2022/06/13 17:16:11;;;;;;;3.90;1.50;;;20.20;1.00;;;;;;8368035;28;20188;-61
2022/06/13 17:20:26;;;;;;;3.43;1.40;;;20.00;1.00;;;;;;8366422;28;20205;-60
2022/06/13 17:24:27;;;;;;;7.60;1.63;;;19.70;1.00;;;;;;8368272;28;20313;-63
2022/06/13 17:32:50;;;;;;;3.20;1.77;;;19.40;1.00;;;;;;8367803;28;20266;-64
2022/06/13 17:36:55;;;;;;;5.93;1.70;;;19.70;1.00;;;;;;8363889;28;20596;-63
2022/06/13 17:40:58;;;;;;;3.00;1.03;;;20.30;1.00;;;;;;8365673;28;20240;-66
2022/06/13 17:45:02;;;;;;;3.13;1.30;;;20.80;1.00;;;;;;8362976;28;20186;-66
2022/06/13 17:49:04;;;;;;;4.33;1.27;;;20.90;1.00;;;;;;8366388;28;20181;-63
2022/06/13 17:53:05;;;;;;;3.27;1.37;;;20.80;1.00;;;;;;8365825;28;20180;-64
2022/06/13 17:57:26;;;;;;;3.50;1.47;;;20.40;1.00;;;;;;8374391;28;20185;-62
2022/06/13 18:01:30;;;;;;;5.23;1.93;;;20.40;1.00;;;;;;8370342;28;20204;-63
2022/06/13 18:05:33;;;;;;;2.47;1.30;;;20.50;1.00;;;;;;8375060;28;20265;-61
2022/06/13 18:09:36;;;;;;;5.00;1.60;;;20.40;1.00;;;;;;8370477;28;20212;-61
2022/06/13 18:13:38;;;;;;;6.40;1.67;;;20.50;1.00;;;;;;8371096;28;20264;-63
2022/06/13 18:17:42;;;;;;;3.47;1.93;;;20.20;1.00;;;;;;8376684;28;20210;-63
2022/06/13 18:21:44;;;;;;;4.47;1.60;;;20.20;1.00;;;;;;8372320;28;20313;-65
2022/06/13 18:25:47;;;;;;;3.73;1.80;;;20.30;1.00;;;;;;8371713;28;20184;-63
2022/06/13 18:29:51;;;;;;;5.23;1.20;;;20.20;1.00;;;;;;8364576;28;20286;-67
2022/06/13 18:33:52;;;;;;;3.83;1.17;;;20.00;1.00;;;;;;8370707;28;20189;-63
2022/06/13 18:37:53;;;;;;;4.80;1.00;;;19.80;1.00;;;;;;8370395;28;20219;-63
2022/06/13 18:41:54;;;;;;;3.53;1.57;;;19.20;1.00;;;;;;8374860;28;20274;-64
2022/06/13 18:45:55;;;;;;;3.87;1.20;;;19.10;1.00;;;;;;8366217;28;20188;-62
2022/06/13 18:49:56;;;;;;;2.70;1.20;;;18.80;1.00;;;;;;8369382;28;20181;-64
2022/06/13 18:53:57;;;;;;;2.70;1.17;;;18.50;1.00;;;;;;8367779;28;20290;-62
2022/06/13 18:57:58;;;;;;;2.23;0.87;;;18.00;1.00;;;;;;8364815;28;20283;-61
2022/06/13 19:02:02;;;;;;;2.20;1.20;;;17.50;1.00;;;;;;8360775;28;20288;-63
2022/06/13 19:06:03;;;;;;;3.80;0.93;;;17.30;1.00;;;;;;8361312;28;20193;-62
2022/06/13 19:10:06;;;;;;;3.43;1.13;;;17.10;1.00;;;;;;8368385;28;20245;-63
2022/06/13 19:14:08;;;;;;;2.90;0.90;;;16.90;1.00;;;;;;8375682;28;20276;-61
2022/06/13 19:18:14;;;;;;;2.13;1.10;;;16.70;1.00;;;;;;8380382;28;20219;-65
2022/06/13 19:22:14;;;;;;;3.13;1.13;;;16.50;1.00;;;;;;8371799;28;20186;-63
2022/06/13 19:26:17;;;;;;;1.80;1.10;;;16.30;1.00;;;;;;8365943;28;20213;-62
2022/06/13 19:30:19;;;;;;;2.10;1.00;;;16.10;1.00;;;;;;8365417;28;20613;-63
2022/06/13 19:34:25;;;;;;;2.87;1.37;;;15.90;1.00;;;;;;8365093;28;20193;-63
2022/06/13 19:38:28;;;;;;;4.90;1.13;;;15.80;1.00;;;;;;8364977;28;20232;-69
2022/06/13 19:42:32;;;;;;;3.67;1.10;;;15.80;1.00;;;;;;8363042;28;20260;-72
2022/06/13 19:46:32;;;;;;;3.40;1.20;;;15.80;1.00;;;;;;8368310;28;20209;-63
2022/06/13 19:50:38;;;;;;;1.77;1.00;;;15.70;1.00;;;;;;8366811;28;20185;-64
2022/06/13 19:54:39;;;;;;;2.17;1.20;;;15.60;1.00;;;;;;8364731;28;20197;-63
2022/06/13 19:58:41;;;;;;;2.97;1.20;;;15.50;1.00;;;;;;8372478;28;20217;-64
2022/06/13 20:02:42;;;;;;;3.40;1.10;;;15.30;1.00;;;;;;8366668;28;20310;-64
2022/06/13 20:11:04;;;;;;;2.60;1.20;;;15.00;1.80;;;;;;8371857;28;20192;-65
2022/06/13 20:15:06;;;;;;;2.00;1.20;;;14.80;17.20;;;;;;8363402;28;20278;-65
2022/06/13 20:19:16;;;;;;;3.27;1.30;;;14.70;32.30;;;;;;8369831;28;20212;-66
2022/06/13 20:23:17;;;;;;;1.73;1.20;;;14.70;48.40;;;;;;8367521;28;20239;-63
2022/06/13 20:27:18;;;;;;;2.80;1.20;;;14.60;69.20;;;;;;8367634;28;20197;-62
2022/06/13 20:31:21;;;;;;;3.20;1.10;;;14.60;95.50;;;;;;8367118;28;20193;-63
2022/06/13 20:35:23;;;;;;;2.03;1.20;;;14.50;91.60;;;;;;8376330;28;20201;-62
2022/06/13 20:39:30;;;;;;;1.93;1.10;;;14.40;98.70;;;;;;8376125;28;20200;-65
2022/06/13 20:43:36;;;;;;;1.27;1.17;;;14.40;99.90;;;;;;8363544;28;20613;-63
2022/06/13 20:47:39;;;;;;;2.90;1.20;;;14.30;99.90;;;;;;8385803;28;20178;-62
2022/06/13 20:51:40;;;;;;;3.33;1.00;;;14.40;99.90;;;;;;8363825;28;20192;-64
2022/06/13 20:55:42;;;;;;;1.97;1.03;;;14.30;99.90;;;;;;8368296;28;20264;-66
2022/06/13 20:59:43;;;;;;;2.60;1.10;;;14.20;99.90;;;;;;8366760;28;20212;-63
2022/06/13 21:03:51;;;;;;;2.70;0.90;;;14.10;99.90;;;;;;8366490;28;20197;-68
2022/06/13 21:07:52;;;;;;;2.17;1.30;;;14.00;99.90;;;;;;8361908;28;20245;-64
2022/06/13 21:11:53;;;;;;;3.03;1.27;;;13.90;99.90;;;;;;8363658;28;20272;-63
2022/06/13 21:15:56;;;;;;;2.77;1.00;;;13.70;99.90;;;;;;8368738;28;20188;-63
2022/06/13 21:19:57;;;;;;;2.77;1.17;;;13.60;99.90;;;;;;8365127;28;20482;-68
2022/06/13 21:24:00;;;;;;;3.70;0.77;;;13.50;99.90;;;;;;8361282;28;21214;-62
2022/06/13 21:28:02;;;;;;;1.80;1.10;;;13.40;99.90;;;;;;8366969;28;20292;-63
2022/06/13 21:32:05;;;;;;;2.53;0.90;;;13.30;99.90;;;;;;8372775;28;20193;-65
2022/06/13 21:36:06;;;;;;;1.33;0.90;;;13.20;99.90;;;;;;8369885;28;20216;-65
2022/06/13 21:40:07;;;;;;;2.93;1.00;;;13.10;99.90;;;;;;8376158;28;20210;-64
2022/06/13 21:44:09;;;;;;;1.23;1.10;;;13.00;99.90;;;;;;8369170;28;20173;-63
2022/06/13 21:48:13;;;;;;;1.47;1.03;;;12.90;1.00;;;;;;8371698;28;20194;-63
2022/06/13 21:52:15;;;;;;;1.73;1.27;;;12.70;1.00;;;;;;8368814;28;20272;-66
2022/06/13 21:56:16;;;;;;;2.57;1.37;;;12.50;1.00;;;;;;8371812;28;20187;-68
2022/06/13 22:00:21;;;;;;;4.07;2.03;;;12.30;1.00;;;;;;8373547;28;20203;-67
2022/06/13 22:04:22;;;;;;;3.87;2.27;;;12.00;1.00;;;;;;8369410;28;20193;-67
2022/06/13 22:08:23;;;;;;;2.33;1.37;;;11.80;46.60;;;;;;8375033;28;20183;-66